Time;durP1;ratioP1;P1;durP2;ratioP2;P2;SDS_P1;SDS_P2;PMS_P1;PMS_P2;Temp;Humidity;BMP_temperature;BMP_pressure;BME280_temperature;BME280_humidity;BME280_pressure;Samples;Min_cycle;Max_cycle;Signal;HPM_P1;HPM_P2
2022/02/28 00:00:18;;;;;;;9.25;5.00;;;;;;;11.13;34.70;101064.02;1753100;80;21447;-55
2022/02/28 00:02:48;;;;;;;8.20;5.30;;;;;;;11.22;34.63;101066.90;1753602;80;21930;-57
2022/02/28 00:05:15;;;;;;;10.43;5.42;;;;;;;11.31;34.66;101065.38;1752289;80;20959;-58
2022/02/28 00:07:42;;;;;;;10.03;5.67;;;;;;;11.43;34.75;101070.80;1755094;80;21543;-57
2022/02/28 00:10:09;;;;;;;11.13;4.87;;;;;;;11.43;34.75;101070.80;1738522;80;21025;-57
2022/02/28 00:12:36;;;;;;;11.05;5.75;;;;;;;11.39;34.91;101070.45;1755752;80;21432;-58
2022/02/28 00:15:04;;;;;;;10.43;5.30;;;;;;;11.47;34.83;101072.02;1758458;80;21817;-57
2022/02/28 00:17:33;;;;;;;13.88;5.20;;;;;;;11.52;34.90;101067.09;1745797;80;21523;-57
2022/02/28 00:20:01;;;;;;;8.65;5.35;;;;;;;11.61;34.78;101066.41;1748747;80;21520;-58
2022/02/28 00:22:29;;;;;;;10.55;6.17;;;;;;;11.69;34.73;101066.22;1751859;80;21538;-57
2022/02/28 00:24:55;;;;;;;12.37;5.78;;;;;;;11.68;35.00;101071.95;1762611;80;20963;-58
2022/02/28 00:27:22;;;;;;;10.23;5.80;;;;;;;11.66;35.05;101076.39;1760258;80;21840;-58
2022/02/28 00:29:48;;;;;;;10.53;5.55;;;;;;;11.72;35.07;101077.16;1748661;80;21430;-58
2022/02/28 00:32:17;;;;;;;9.03;5.65;;;;;;;11.81;34.99;101072.52;1753914;80;21471;-58
2022/02/28 00:34:44;;;;;;;10.38;5.67;;;;;;;11.87;34.91;101065.77;1759669;80;21582;-57
2022/02/28 00:37:10;;;;;;;10.88;5.97;;;;;;;11.92;34.84;101069.61;1759217;80;21526;-58
2022/02/28 00:39:37;;;;;;;9.13;6.45;;;;;;;11.86;34.96;101073.70;1693159;83;21449;-58
2022/02/28 00:42:05;;;;;;;13.22;6.35;;;;;;;11.93;34.91;101067.41;1729231;82;21411;-57
2022/02/28 00:44:31;;;;;;;10.48;6.22;;;;;;;11.96;34.97;101066.02;1723325;82;21592;-58
2022/02/28 00:46:58;;;;;;;11.53;5.40;;;;;;;12.00;34.95;101065.49;1728315;82;21836;-58
2022/02/28 00:49:25;;;;;;;11.13;5.53;;;;;;;11.93;34.91;101064.77;1728931;80;22158;-58
2022/02/28 00:51:52;;;;;;;6.78;5.25;;;;;;;11.88;34.87;101067.50;1731776;82;21886;-58
2022/02/28 00:54:19;;;;;;;9.23;5.85;;;;;;;11.86;34.78;101065.33;1730502;82;21430;-58
2022/02/28 00:56:45;;;;;;;8.30;5.40;;;;;;;11.83;34.82;101074.66;1728257;82;21068;-58
2022/02/28 00:59:12;;;;;;;9.80;5.50;;;;;;;11.77;34.68;101068.66;1733559;82;21530;-58
2022/02/28 01:01:39;;;;;;;9.20;5.78;;;;;;;11.64;34.85;101072.04;1725064;82;21583;-58
2022/02/28 01:04:06;;;;;;;7.25;4.95;;;;;;;11.54;34.89;101075.36;1729863;82;21830;-58
2022/02/28 01:06:34;;;;;;;10.08;4.80;;;;;;;11.47;34.89;101073.34;1732968;82;21525;-58
2022/02/28 01:09:03;;;;;;;7.95;5.47;;;;;;;11.36;34.94;101079.73;1730754;82;21577;-58
2022/02/28 01:11:29;;;;;;;9.03;5.37;;;;;;;11.23;35.11;101077.40;1732663;82;21866;-57
2022/02/28 01:13:57;;;;;;;8.73;5.05;;;;;;;11.12;35.43;101078.55;1727857;82;21072;-58
2022/02/28 01:16:25;;;;;;;6.47;4.58;;;;;;;11.14;35.30;101082.88;1729406;82;21876;-58
2022/02/28 01:18:52;;;;;;;11.22;5.55;;;;;;;11.16;35.31;101086.79;1732316;82;21521;-57
2022/02/28 01:21:18;;;;;;;9.38;5.28;;;;;;;11.09;35.32;101086.05;1725529;82;21529;-58
2022/02/28 01:23:45;;;;;;;10.75;5.85;;;;;;;11.09;35.23;101085.62;1730058;81;21453;-58
2022/02/28 01:26:12;;;;;;;9.10;6.12;;;;;;;11.00;35.23;101083.19;1730533;82;21493;-57
2022/02/28 01:28:39;;;;;;;10.03;5.67;;;;;;;10.91;35.29;101084.23;1726163;82;22045;-58
2022/02/28 01:31:06;;;;;;;10.45;6.20;;;;;;;10.86;35.42;101084.77;1726976;82;21494;-58
2022/02/28 01:33:33;;;;;;;9.27;5.30;;;;;;;10.77;35.35;101081.02;1732725;82;21085;-57
2022/02/28 01:36:00;;;;;;;8.13;4.53;;;;;;;10.67;35.70;101082.12;1724403;81;21571;-58
2022/02/28 01:38:28;;;;;;;9.48;5.50;;;;;;;10.69;35.74;101082.49;1732499;82;21573;-58
2022/02/28 01:40:55;;;;;;;8.08;5.15;;;;;;;10.67;35.66;101079.03;1733563;80;21774;-58
2022/02/28 01:43:22;;;;;;;7.47;4.62;;;;;;;10.61;35.91;101073.90;1758960;80;21634;-58
2022/02/28 01:45:48;;;;;;;9.15;5.28;;;;;;;10.62;35.89;101081.33;1742864;80;21645;-58
2022/02/28 01:48:15;;;;;;;8.73;4.87;;;;;;;10.66;35.92;101077.73;1750141;80;21042;-58
2022/02/28 01:50:42;;;;;;;8.27;4.97;;;;;;;10.71;35.79;101078.52;1753028;80;21568;-58
2022/02/28 01:53:09;;;;;;;10.40;5.10;;;;;;;10.74;35.68;101073.20;1758257;80;21880;-58
2022/02/28 01:55:37;;;;;;;8.33;4.65;;;;;;;10.72;35.71;101076.32;1760400;80;21400;-58
2022/02/28 01:58:04;;;;;;;10.43;5.60;;;;;;;10.64;35.72;101072.53;1759249;80;21613;-57
2022/02/28 02:00:32;;;;;;;8.50;4.90;;;;;;;10.66;35.60;101069.42;1751474;80;21033;-58
2022/02/28 02:02:59;;;;;;;8.50;5.08;;;;;;;10.63;35.60;101072.56;1753079;80;21403;-57
2022/02/28 02:05:27;;;;;;;6.20;4.60;;;;;;;10.66;35.50;101070.73;1753630;80;21799;-57
2022/02/28 02:07:54;;;;;;;8.18;5.10;;;;;;;10.60;35.78;101067.34;1744482;80;21089;-57
2022/02/28 02:10:21;;;;;;;8.00;5.00;;;;;;;10.64;35.66;101065.06;1756903;80;21491;-58
2022/02/28 02:12:48;;;;;;;8.00;4.87;;;;;;;10.62;35.69;101069.04;1759052;80;20943;-57
2022/02/28 02:15:17;;;;;;;7.33;5.10;;;;;;;10.58;35.67;101073.09;1753877;80;21467;-57
2022/02/28 02:17:44;;;;;;;8.23;5.60;;;;;;;10.62;35.53;101073.44;1758064;80;21850;-57
2022/02/28 02:20:26;;;;;;;8.77;4.90;;;;;;;10.56;35.53;101072.26;1751853;80;21541;-58
2022/02/28 02:23:00;;;;;;;9.33;5.15;;;;;;;10.53;35.46;101078.45;1752434;80;21609;-57
2022/02/28 02:25:27;;;;;;;10.15;5.45;;;;;;;10.51;35.58;101077.63;1760603;80;21585;-57
2022/02/28 02:27:54;;;;;;;8.90;5.00;;;;;;;10.48;35.49;101077.22;1751899;80;21583;-57
2022/02/28 02:30:21;;;;;;;7.90;5.10;;;;;;;10.45;35.55;101086.50;1752663;80;21997;-57
2022/02/28 02:32:48;;;;;;;8.68;4.87;;;;;;;10.33;35.62;101086.72;1749751;80;21480;-57
2022/02/28 02:35:15;;;;;;;8.08;5.37;;;;;;;10.31;35.59;101083.25;1743128;80;20930;-57
2022/02/28 02:37:41;;;;;;;9.23;5.10;;;;;;;10.27;35.63;101090.30;1748802;80;20986;-57
2022/02/28 02:40:09;;;;;;;9.10;5.42;;;;;;;10.20;35.66;101086.49;1757621;80;21471;-57
2022/02/28 02:42:36;;;;;;;6.65;5.22;;;;;;;10.17;35.71;101090.06;1747837;80;21790;-57
2022/02/28 02:45:04;;;;;;;8.55;5.37;;;;;;;10.21;35.68;101089.10;1748550;80;21432;-56
2022/02/28 02:47:32;;;;;;;7.03;5.58;;;;;;;10.14;35.81;101081.77;1756156;80;21534;-56
2022/02/28 02:50:07;;;;;;;9.08;5.55;;;;;;;10.13;35.81;101095.81;1700026;83;21446;-57
2022/02/28 02:52:34;;;;;;;8.18;5.90;;;;;;;10.05;35.90;101090.26;1752515;80;21469;-57
2022/02/28 02:55:01;;;;;;;11.05;5.78;;;;;;;9.99;35.90;101088.61;1754504;80;21502;-57
2022/02/28 02:57:30;;;;;;;9.28;6.05;;;;;;;9.97;35.91;101093.02;1759746;80;21577;-57
2022/02/28 03:00:04;;;;;;;8.83;5.90;;;;;;;9.91;35.94;101089.20;1748025;80;21591;-56
2022/02/28 03:02:32;;;;;;;10.88;6.60;;;;;;;9.88;35.91;101086.61;1754450;80;21487;-56
2022/02/28 03:05:01;;;;;;;10.75;6.17;;;;;;;9.83;36.00;101081.88;1758833;80;21558;-57
2022/02/28 03:07:27;;;;;;;10.88;6.08;;;;;;;9.87;36.05;101084.86;1760327;80;21880;-56
2022/02/28 03:09:54;;;;;;;10.55;5.78;;;;;;;9.88;36.04;101092.72;1755794;80;21455;-57
2022/02/28 03:12:21;;;;;;;8.80;6.10;;;;;;;9.86;36.04;101089.25;1748885;80;21551;-57
2022/02/28 03:14:49;;;;;;;10.55;6.00;;;;;;;9.90;36.18;101087.45;1728217;82;21583;-56
2022/02/28 03:17:16;;;;;;;10.13;6.23;;;;;;;9.97;36.01;101089.08;1752632;80;21498;-57
2022/02/28 03:19:43;;;;;;;6.30;4.30;;;;;;;9.92;35.99;101088.29;1758174;80;22130;-57
2022/02/28 03:22:09;;;;;;;9.50;5.83;;;;;;;9.94;35.96;101084.77;1761801;80;21577;-56
2022/02/28 03:24:38;;;;;;;12.15;5.85;;;;;;;9.93;35.90;101086.95;1756443;80;21573;-57
2022/02/28 03:27:05;;;;;;;7.67;5.27;;;;;;;9.89;35.98;101082.65;1765423;80;21486;-57
2022/02/28 03:29:32;;;;;;;8.13;5.45;;;;;;;9.93;35.95;101086.95;1756842;80;21538;-57
2022/02/28 03:31:58;;;;;;;8.50;5.00;;;;;;;9.87;35.91;101085.75;1760555;80;21835;-57
2022/02/28 03:34:25;;;;;;;8.88;5.58;;;;;;;9.82;35.83;101086.72;1759491;80;20934;-57
2022/02/28 03:36:52;;;;;;;10.90;5.60;;;;;;;9.78;36.02;101078.48;1754667;80;21058;-57
2022/02/28 03:39:19;;;;;;;7.12;5.53;;;;;;;9.75;36.04;101085.48;1757838;80;21537;-57
2022/02/28 03:41:46;;;;;;;10.38;5.90;;;;;;;9.75;36.03;101084.63;1735466;82;21407;-57
2022/02/28 03:44:14;;;;;;;6.42;4.80;;;;;;;9.73;36.13;101079.85;1732305;81;21702;-58
2022/02/28 03:46:42;;;;;;;6.12;4.60;;;;;;;9.73;36.19;101083.79;1737828;82;21471;-57
2022/02/28 03:49:18;;;;;;;9.50;4.70;;;;;;;9.81;36.23;101084.52;1735781;81;21565;-57
2022/02/28 03:51:52;;;;;;;8.03;5.05;;;;;;;9.83;36.22;101081.88;1741914;81;21554;-57
2022/02/28 03:54:21;;;;;;;8.20;5.03;;;;;;;9.81;36.18;101084.52;1732787;82;21557;-56
2022/02/28 03:56:47;;;;;;;7.62;4.75;;;;;;;9.85;36.41;101086.66;1729679;82;21470;-56
2022/02/28 03:59:14;;;;;;;9.45;4.60;;;;;;;9.83;36.43;101083.19;1733276;81;21418;-56
2022/02/28 04:01:41;;;;;;;9.00;4.60;;;;;;;9.84;36.51;101081.85;1726452;81;21459;-57
2022/02/28 04:04:10;;;;;;;7.75;4.85;;;;;;;9.86;36.65;101079.20;1730782;81;21513;-57
2022/02/28 04:06:36;;;;;;;8.95;4.28;;;;;;;9.94;36.52;101093.06;1737823;81;20942;-56
2022/02/28 04:09:09;;;;;;;6.72;4.35;;;;;;;9.97;36.44;101093.48;1738021;82;21874;-56
2022/02/28 04:11:33;;;;;;;6.65;3.83;;;;;;;9.93;36.58;101097.92;1740643;81;21179;-57
2022/02/28 04:14:01;;;;;;;5.45;3.58;;;;;;;9.97;36.56;101099.59;1729612;80;20986;-56
2022/02/28 04:16:28;;;;;;;6.22;3.92;;;;;;;9.94;36.63;101097.01;1734274;80;21048;-56
2022/02/28 04:19:14;;;;;;;5.83;4.17;;;;;;;9.93;36.59;101104.48;1734062;82;21431;-56
2022/02/28 04:21:43;;;;;;;9.40;3.92;;;;;;;9.92;36.64;101110.62;1737308;82;21768;-57
2022/02/28 04:24:09;;;;;;;7.45;4.10;;;;;;;9.91;36.65;101115.02;1737716;81;21478;-56
2022/02/28 04:26:36;;;;;;;5.58;3.70;;;;;;;9.94;36.50;101112.77;1736771;82;21594;-56
2022/02/28 04:29:04;;;;;;;5.83;3.70;;;;;;;9.99;36.42;101111.40;1737902;82;21640;-57
2022/02/28 04:31:31;;;;;;;6.37;4.25;;;;;;;9.97;36.30;101115.81;1740032;81;21560;-57
2022/02/28 04:33:58;;;;;;;4.35;3.47;;;;;;;9.96;36.15;101112.75;1729884;80;21492;-57
2022/02/28 04:36:25;;;;;;;7.10;3.75;;;;;;;9.98;36.40;101119.70;1737333;82;21392;-57
2022/02/28 04:38:52;;;;;;;4.45;3.33;;;;;;;9.89;36.39;101119.89;1727162;82;21486;-57
2022/02/28 04:41:19;;;;;;;7.43;3.80;;;;;;;9.94;36.30;101123.28;1750718;80;21460;-57
2022/02/28 04:43:47;;;;;;;4.97;3.65;;;;;;;9.92;36.35;101115.42;1744205;80;21395;-57
2022/02/28 04:46:13;;;;;;;4.87;3.37;;;;;;;9.90;36.40;101116.34;1746112;80;21818;-56
2022/02/28 04:48:40;;;;;;;5.30;3.83;;;;;;;9.91;36.33;101118.95;1754404;80;21436;-56
2022/02/28 04:51:26;;;;;;;5.40;3.60;;;;;;;9.82;36.39;101114.30;1669854;83;20994;-57
2022/02/28 04:53:55;;;;;;;7.47;3.33;;;;;;;9.82;36.38;101119.55;1671837;83;21527;-57
2022/02/28 04:56:22;;;;;;;4.28;2.92;;;;;;;9.77;36.45;101120.92;1702082;80;21529;-57
2022/02/28 04:58:48;;;;;;;7.15;3.50;;;;;;;9.72;36.55;101125.41;1749398;80;21865;-57
2022/02/28 05:01:17;;;;;;;4.58;3.25;;;;;;;9.82;36.34;101126.13;1752233;80;21387;-57
2022/02/28 05:03:45;;;;;;;5.50;3.55;;;;;;;9.85;36.41;101129.58;1746977;80;21507;-57
2022/02/28 05:06:12;;;;;;;6.45;3.33;;;;;;;9.84;36.33;101130.91;1749285;80;21511;-58
2022/02/28 05:08:43;;;;;;;4.28;3.20;;;;;;;9.92;36.19;101129.02;1741738;80;21391;-57
2022/02/28 05:11:09;;;;;;;6.57;3.40;;;;;;;9.88;36.30;101128.19;1747284;80;21763;-57
2022/02/28 05:13:36;;;;;;;5.77;3.27;;;;;;;9.88;36.31;101136.07;1750071;80;21671;-56
2022/02/28 05:16:04;;;;;;;5.30;3.67;;;;;;;9.93;36.32;101139.50;1747901;80;21508;-57
2022/02/28 05:18:32;;;;;;;4.83;3.22;;;;;;;9.88;36.38;101137.84;1740906;80;21513;-59
2022/02/28 05:20:59;;;;;;;5.87;3.75;;;;;;;9.89;36.39;101131.70;1747998;80;21573;-57
2022/02/28 05:23:27;;;;;;;5.60;3.67;;;;;;;9.90;36.45;101125.55;1747731;80;21789;-56
2022/02/28 05:25:54;;;;;;;4.58;3.60;;;;;;;9.99;36.34;101134.59;1745935;80;21535;-55
2022/02/28 05:28:20;;;;;;;4.70;3.40;;;;;;;10.03;36.39;101135.41;1747684;80;21534;-56
2022/02/28 05:30:47;;;;;;;4.00;3.00;;;;;;;10.07;36.31;101137.95;1747698;80;21666;-58
2022/02/28 05:33:19;;;;;;;6.00;3.52;;;;;;;10.13;36.34;101141.80;1748537;80;21502;-57
2022/02/28 05:35:46;;;;;;;5.72;3.10;;;;;;;10.19;36.31;101145.20;1745038;80;22039;-57
2022/02/28 05:38:16;;;;;;;4.05;3.65;;;;;;;10.27;36.18;101142.02;1750742;80;21414;-57
2022/02/28 05:40:46;;;;;;;5.10;3.72;;;;;;;10.25;36.24;101144.66;1755311;80;21488;-57
2022/02/28 05:43:14;;;;;;;4.90;3.30;;;;;;;10.27;36.39;101143.33;1749013;80;21451;-57
2022/02/28 05:45:41;;;;;;;4.10;3.08;;;;;;;10.27;36.49;101143.33;1746173;80;21565;-58
2022/02/28 05:48:22;;;;;;;4.30;3.08;;;;;;;10.22;36.54;101150.42;1751182;80;22015;-57
2022/02/28 05:50:48;;;;;;;6.33;3.10;;;;;;;10.20;36.75;101145.64;1752963;80;21553;-57
2022/02/28 05:53:15;;;;;;;5.70;3.62;;;;;;;10.22;36.78;101151.73;1746759;80;21594;-57
2022/02/28 05:55:42;;;;;;;4.90;3.20;;;;;;;10.26;36.80;101148.15;1744016;80;21080;-57
2022/02/28 05:58:08;;;;;;;7.67;3.83;;;;;;;10.32;36.80;101159.47;1749767;80;21427;-58
2022/02/28 06:00:35;;;;;;;3.97;3.03;;;;;;;10.28;36.84;101152.51;1762271;80;23337;-58
2022/02/28 06:03:02;;;;;;;7.97;3.58;;;;;;;10.25;36.97;101154.31;1748436;80;21517;-56
2022/02/28 06:05:28;;;;;;;4.50;3.50;;;;;;;10.38;36.76;101157.19;1760773;80;21546;-56
2022/02/28 06:07:56;;;;;;;5.72;3.80;;;;;;;10.46;36.68;101153.95;1750572;80;21521;-57
2022/02/28 06:10:22;;;;;;;3.93;3.27;;;;;;;10.48;36.66;101160.05;1757142;80;21400;-57
2022/02/28 06:12:49;;;;;;;4.67;3.12;;;;;;;10.55;36.47;101157.30;1756329;80;21777;-57
2022/02/28 06:15:16;;;;;;;5.03;3.40;;;;;;;10.48;36.45;101164.45;1756046;80;21486;-57
2022/02/28 06:17:42;;;;;;;4.83;3.10;;;;;;;10.51;36.34;101167.03;1737477;80;21535;-57
2022/02/28 06:20:10;;;;;;;6.67;3.50;;;;;;;10.60;36.11;101172.09;1762171;80;21411;-57
2022/02/28 06:22:38;;;;;;;4.65;3.37;;;;;;;10.54;36.21;101171.36;1739559;80;21444;-57
2022/02/28 06:25:06;;;;;;;3.13;2.83;;;;;;;10.67;35.88;101171.09;1754225;80;21455;-57
2022/02/28 06:27:33;;;;;;;3.87;2.40;;;;;;;10.72;35.86;101173.66;1755877;80;21511;-57
2022/02/28 06:30:00;;;;;;;3.73;2.57;;;;;;;10.78;35.80;101170.90;1756782;80;21605;-57
2022/02/28 06:32:26;;;;;;;3.37;2.75;;;;;;;10.87;35.59;101172.04;1757397;80;21479;-57
2022/02/28 06:34:55;;;;;;;4.20;2.92;;;;;;;10.93;35.42;101172.36;1746748;80;21422;-57
2022/02/28 06:37:22;;;;;;;3.98;2.60;;;;;;;11.08;35.10;101166.78;1755161;80;21805;-57
2022/02/28 06:39:49;;;;;;;3.60;2.17;;;;;;;11.15;35.11;101168.86;1748148;80;21431;-56
2022/02/28 06:42:16;;;;;;;3.07;2.40;;;;;;;11.13;34.82;101169.30;1755201;80;21049;-57
2022/02/28 06:44:43;;;;;;;4.72;2.27;;;;;;;11.14;34.79;101167.11;1751110;80;21682;-57
2022/02/28 06:47:10;;;;;;;4.47;2.27;;;;;;;11.17;34.63;101167.48;1748148;80;21550;-58
2022/02/28 06:49:37;;;;;;;4.13;1.87;;;;;;;11.24;34.42;101163.83;1750069;80;22008;-56
2022/02/28 06:52:05;;;;;;;2.90;1.90;;;;;;;11.20;34.23;101165.66;1741739;80;21561;-60
2022/02/28 06:54:32;;;;;;;2.10;1.62;;;;;;;11.19;33.99;101166.56;1748706;80;21475;-56
2022/02/28 06:56:58;;;;;;;1.90;1.50;;;;;;;11.23;33.63;101166.91;1756050;80;21475;-57
2022/02/28 06:59:26;;;;;;;2.33;1.85;;;;;;;11.34;33.29;101166.69;1747528;80;21447;-58
2022/02/28 07:01:52;;;;;;;5.67;2.05;;;;;;;11.38;32.75;101167.50;1751338;80;27071;-57
2022/02/28 07:04:38;;;;;;;2.98;2.05;;;;;;;11.45;32.47;101175.66;1723011;82;21455;-57
2022/02/28 07:07:05;;;;;;;2.65;1.77;;;;;;;11.54;32.40;101174.59;1737043;80;21459;-57
2022/02/28 07:09:33;;;;;;;2.95;1.42;;;;;;;11.56;32.26;101172.33;1750150;80;21053;-57
2022/02/28 07:12:00;;;;;;;4.95;2.20;;;;;;;11.61;32.30;101175.73;1744462;80;21069;-57
2022/02/28 07:14:26;;;;;;;3.87;1.82;;;;;;;11.75;32.03;101171.45;1753001;80;21848;-58
2022/02/28 07:16:53;;;;;;;2.35;2.15;;;;;;;11.84;31.63;101166.43;1748586;80;21616;-57
2022/02/28 07:19:20;;;;;;;3.87;2.07;;;;;;;11.87;31.71;101171.64;1746001;80;21026;-57
2022/02/28 07:21:46;;;;;;;4.65;2.30;;;;;;;11.95;31.53;101175.44;1749532;80;21080;-57
2022/02/28 07:24:15;;;;;;;2.35;1.67;;;;;;;12.12;31.45;101174.56;1742550;80;21483;-58
2022/02/28 07:26:42;;;;;;;3.10;2.08;;;;;;;12.46;31.33;101174.56;1754549;80;21832;-57
2022/02/28 07:29:08;;;;;;;2.37;2.15;;;;;;;12.65;31.12;101178.89;1746257;80;21471;-58
2022/02/28 07:31:36;;;;;;;3.77;2.60;;;;;;;12.98;30.74;101175.39;1735241;80;21920;-58
2022/02/28 07:34:02;;;;;;;4.08;2.45;;;;;;;13.25;30.23;101169.28;1753170;80;21490;-58
2022/02/28 07:36:29;;;;;;;3.25;2.33;;;;;;;13.75;29.25;101168.70;1750901;80;21644;-58
2022/02/28 07:38:56;;;;;;;3.85;2.12;;;;;;;14.36;28.86;101185.64;1745485;80;21462;-58
2022/02/28 07:41:22;;;;;;;2.67;2.12;;;;;;;14.89;27.92;101175.44;1748940;80;21568;-58
2022/02/28 07:43:49;;;;;;;3.83;2.30;;;;;;;15.34;27.52;101179.08;1755556;80;21631;-58
2022/02/28 07:46:16;;;;;;;4.03;2.42;;;;;;;15.63;26.88;101175.75;1762229;80;21487;-57
2022/02/28 07:48:44;;;;;;;4.45;2.60;;;;;;;15.87;27.00;101172.15;1752611;80;20968;-58
2022/02/28 07:51:12;;;;;;;3.62;1.95;;;;;;;15.91;26.38;101169.77;1757536;80;21501;-59
2022/02/28 07:55:02;;;;;;;3.52;2.42;;;;;;;13.11;30.76;101168.84;1787630;79;23110;-58
2022/02/28 07:57:30;;;;;;;6.25;2.37;;;;;;;15.30;27.14;101176.16;1745775;80;21632;-59
2022/02/28 07:59:57;;;;;;;2.85;2.20;;;;;;;15.48;27.12;101178.54;1749246;80;22080;-59
2022/02/28 08:02:24;;;;;;;2.75;2.42;;;;;;;15.70;27.28;101171.94;1733814;81;21553;-59
2022/02/28 08:04:51;;;;;;;2.72;2.37;;;;;;;16.02;27.10;101173.79;1748769;80;28443;-59
2022/02/28 08:07:18;;;;;;;3.10;2.80;;;;;;;16.20;26.76;101175.69;1729237;80;21490;-59
2022/02/28 08:09:46;;;;;;;3.98;2.87;;;;;;;16.21;26.32;101170.76;1739708;80;21458;-59
2022/02/28 08:12:12;;;;;;;3.17;2.67;;;;;;;16.23;26.27;101170.22;1732916;80;22093;-59
2022/02/28 08:14:40;;;;;;;3.58;2.87;;;;;;;16.45;26.68;101179.47;1737298;80;21419;-59
2022/02/28 08:17:08;;;;;;;4.53;2.60;;;;;;;16.65;26.58;101167.11;1702489;83;21415;-60
2022/02/28 08:19:35;;;;;;;3.12;2.83;;;;;;;16.86;26.44;101164.03;1706087;83;21441;-59
2022/02/28 08:22:02;;;;;;;2.98;2.52;;;;;;;17.17;26.14;101162.63;1708800;82;21459;-60
2022/02/28 08:24:29;;;;;;;6.28;2.30;;;;;;;17.31;25.60;101160.20;1709775;83;21731;-59
2022/02/28 08:26:56;;;;;;;2.37;2.17;;;;;;;17.58;25.31;101155.35;1703910;83;21553;-59
2022/02/28 08:29:22;;;;;;;2.62;2.42;;;;;;;17.58;25.31;101155.35;1710409;83;21502;-60
2022/02/28 08:31:49;;;;;;;7.00;2.62;;;;;;;17.65;24.80;101154.12;1687019;83;21451;-59
2022/02/28 08:34:17;;;;;;;2.85;2.58;;;;;;;17.73;24.97;101155.56;1702821;83;21477;-59
2022/02/28 08:36:44;;;;;;;5.25;3.00;;;;;;;17.84;24.82;101154.12;1697968;83;21514;-59
2022/02/28 08:39:10;;;;;;;6.42;3.12;;;;;;;17.89;24.51;101156.09;1700507;83;21442;-60
2022/02/28 08:41:37;;;;;;;5.35;2.70;;;;;;;17.95;23.92;101151.39;1692962;81;21013;-59
2022/02/28 08:44:07;;;;;;;3.75;2.80;;;;;;;17.95;24.29;101156.26;1704900;83;21510;-59
2022/02/28 08:46:36;;;;;;;6.35;2.67;;;;;;;17.83;24.07;101151.02;1699558;83;21513;-58
2022/02/28 08:49:04;;;;;;;3.15;2.85;;;;;;;17.73;24.11;101154.23;1701007;83;21730;-59
2022/02/28 08:51:54;;;;;;;3.95;3.15;;;;;;;17.74;23.73;101150.14;1700124;83;21522;-59
2022/02/28 08:54:20;;;;;;;2.80;2.47;;;;;;;17.72;23.48;101157.33;1717559;81;21571;-58
2022/02/28 08:56:47;;;;;;;3.37;2.80;;;;;;;17.78;23.61;101149.52;1725623;82;21608;-59
2022/02/28 08:59:14;;;;;;;3.17;2.80;;;;;;;17.97;23.56;101155.71;1722204;81;21540;-58
2022/02/28 09:01:40;;;;;;;6.37;2.62;;;;;;;18.11;23.38;101149.69;1713599;81;22097;-60
2022/02/28 09:04:07;;;;;;;2.67;2.47;;;;;;;18.33;23.27;101156.13;1725405;81;21412;-60
2022/02/28 09:06:34;;;;;;;3.08;2.67;;;;;;;18.70;22.78;101152.86;1719218;81;21543;-60
2022/02/28 09:09:01;;;;;;;3.22;2.92;;;;;;;18.89;22.07;101151.44;1717968;80;21549;-59
2022/02/28 09:11:28;;;;;;;4.15;2.45;;;;;;;19.14;21.87;101150.98;1717803;82;21756;-60
2022/02/28 09:13:55;;;;;;;4.08;2.72;;;;;;;19.20;21.69;101154.64;1706819;80;21540;-60
2022/02/28 09:16:22;;;;;;;4.67;2.45;;;;;;;19.20;21.17;101152.45;1717258;81;21496;-59
2022/02/28 09:18:51;;;;;;;4.60;2.75;;;;;;;19.25;21.13;101155.25;1713738;81;21589;-59
2022/02/28 09:21:17;;;;;;;2.98;2.40;;;;;;;19.26;20.97;101151.63;1720338;81;21000;-59
2022/02/28 09:23:44;;;;;;;3.52;2.50;;;;;;;19.32;20.92;101153.58;1718793;81;21083;-60
2022/02/28 09:26:11;;;;;;;3.92;2.65;;;;;;;19.31;20.70;101154.50;1721266;81;22120;-60
2022/02/28 09:28:38;;;;;;;3.02;2.52;;;;;;;19.41;20.41;101149.92;1713535;81;20976;-60
2022/02/28 09:31:07;;;;;;;2.35;2.15;;;;;;;19.61;20.75;101143.95;1718854;81;21449;-60
2022/02/28 09:33:34;;;;;;;3.20;2.33;;;;;;;19.92;20.44;101135.05;1713377;81;21547;-60
2022/02/28 09:36:04;;;;;;;2.92;2.55;;;;;;;20.02;20.31;101132.25;1716065;82;21091;-60
2022/02/28 09:38:31;;;;;;;3.05;2.33;;;;;;;20.09;20.15;101125.20;1712233;82;21788;-60
2022/02/28 09:40:58;;;;;;;2.47;2.10;;;;;;;19.91;20.07;101120.45;1709035;81;21449;-59
2022/02/28 09:43:44;;;;;;;3.33;2.08;;;;;;;19.95;19.87;101116.20;1712785;82;21604;-59
2022/02/28 09:46:29;;;;;;;4.00;2.40;;;;;;;20.22;19.57;101121.70;1709997;81;21533;-58
2022/02/28 09:49:14;;;;;;;3.05;2.40;;;;;;;20.42;19.44;101114.32;1713167;81;21567;-58
2022/02/28 09:51:47;;;;;;;3.55;2.30;;;;;;;20.46;19.35;101114.99;1722720;81;21751;-60
2022/02/28 09:54:32;;;;;;;2.25;1.95;;;;;;;20.42;19.21;101107.64;1710454;81;21615;-59
2022/02/28 09:57:22;;;;;;;3.75;2.00;;;;;;;20.75;19.23;101110.55;1715288;81;21545;-60
2022/02/28 09:59:48;;;;;;;4.80;2.50;;;;;;;20.85;18.76;101095.66;1699683;82;21771;-60
2022/02/28 10:02:15;;;;;;;3.83;2.43;;;;;;;20.66;18.84;101099.94;1714182;82;21586;-60
2022/02/28 10:04:43;;;;;;;3.17;2.03;;;;;;;20.37;19.09;101101.23;1727648;81;21770;-57
2022/02/28 10:07:23;;;;;;;3.50;1.98;;;;;;;20.18;19.20;101090.80;1686692;83;21761;-59
2022/02/28 10:10:15;;;;;;;5.00;2.00;;;;;;;19.79;19.31;101098.02;1735323;80;21416;-60
2022/02/28 10:12:44;;;;;;;3.00;1.98;;;;;;;19.53;19.91;101086.16;1724389;80;21436;-58
2022/02/28 10:15:20;;;;;;;2.08;1.62;;;;;;;19.34;19.92;101085.02;1724903;81;21404;-59
2022/02/28 10:17:56;;;;;;;2.67;1.98;;;;;;;19.17;20.17;101081.48;1721282;81;21712;-60
2022/02/28 10:20:36;;;;;;;2.60;2.05;;;;;;;18.92;20.14;101071.81;1717893;82;21555;-59
2022/02/28 10:23:12;;;;;;;2.95;2.22;;;;;;;18.65;20.33;101072.34;1736282;81;21456;-60
2022/02/28 10:25:57;;;;;;;2.58;2.05;;;;;;;18.74;20.25;101073.19;1719407;81;21531;-60
2022/02/28 10:28:45;;;;;;;3.42;2.10;;;;;;;19.50;19.99;101061.02;1691534;82;21417;-58
2022/02/28 10:31:24;;;;;;;1.90;1.62;;;;;;;20.02;19.57;101065.52;1592843;87;21808;-59
2022/02/28 10:34:21;;;;;;;2.95;1.67;;;;;;;20.26;19.09;101070.30;1671945;83;21575;-61
2022/02/28 10:37:02;;;;;;;2.45;2.25;;;;;;;20.54;19.06;101060.61;1694694;81;21577;-61
2022/02/28 10:39:34;;;;;;;2.05;1.60;;;;;;;20.18;19.14;101067.25;1723255;80;21054;-61
2022/02/28 10:42:18;;;;;;;2.70;2.17;;;;;;;19.81;19.55;101068.95;1714142;81;21581;-61
2022/02/28 10:44:46;;;;;;;2.55;2.35;;;;;;;19.65;19.34;101058.78;1715543;81;21831;-62
2022/02/28 10:47:14;;;;;;;3.05;2.75;;;;;;;19.64;19.77;101057.90;1746915;80;21535;-62
2022/02/28 10:49:41;;;;;;;7.65;2.55;;;;;;;19.68;20.07;101057.73;1721915;80;21552;-61
2022/02/28 10:52:12;;;;;;;3.70;2.72;;;;;;;19.90;20.25;101063.55;1720140;81;21595;-62
2022/02/28 10:54:44;;;;;;;2.30;2.10;;;;;;;19.74;20.14;101057.40;1713747;81;21686;-61
2022/02/28 10:57:20;;;;;;;4.15;2.90;;;;;;;19.90;20.14;101057.37;1721550;81;21593;-61
2022/02/28 10:59:55;;;;;;;3.75;2.67;;;;;;;19.94;19.94;101054.89;1724955;82;21397;-61
2022/02/28 11:02:32;;;;;;;3.40;2.83;;;;;;;20.12;20.26;101051.13;1714855;81;21593;-61
2022/02/28 11:05:13;;;;;;;2.87;2.00;;;;;;;20.39;20.16;101050.39;1728683;82;20957;-61
2022/02/28 11:07:47;;;;;;;2.40;2.05;;;;;;;20.64;20.00;101048.41;1706625;81;21641;-61
2022/02/28 11:10:16;;;;;;;3.55;2.67;;;;;;;20.75;19.99;101041.91;1729868;82;21787;-61
2022/02/28 11:12:44;;;;;;;4.75;2.47;;;;;;;20.66;19.62;101039.81;1697201;81;21545;-60
2022/02/28 11:15:15;;;;;;;6.00;2.17;;;;;;;20.51;19.67;101038.95;1722045;81;26709;-62
2022/02/28 11:17:50;;;;;;;6.12;2.35;;;;;;;20.69;19.82;101037.44;1710939;82;21364;-60
2022/02/28 11:20:20;;;;;;;3.80;2.27;;;;;;;20.64;19.60;101038.20;1706035;81;21507;-61
2022/02/28 11:22:49;;;;;;;3.40;2.22;;;;;;;20.74;19.85;101033.52;1724483;81;22080;-60
2022/02/28 11:25:18;;;;;;;2.30;2.05;;;;;;;20.90;19.64;101040.08;1716088;81;21558;-61
2022/02/28 11:27:46;;;;;;;2.45;2.10;;;;;;;21.22;19.50;101048.32;1734605;81;21559;-60
2022/02/28 11:30:17;;;;;;;2.37;2.17;;;;;;;21.29;19.08;101047.81;1705967;81;22198;-61
2022/02/28 11:32:44;;;;;;;4.33;1.82;;;;;;;20.91;19.03;101049.83;1726159;81;21540;-60
2022/02/28 11:35:56;;;;;;;2.30;1.98;;;;;;;21.05;19.30;101058.77;1719035;81;22080;-61